sensor_id;sensor_type;location;lat;lon;timestamp;temperature;humidity
22544;DHT22;11438;52.044;8.716;2022-12-11T00:01:50;5.00;95.70
22544;DHT22;11438;52.044;8.716;2022-12-11T00:04:16;5.00;95.70
22544;DHT22;11438;52.044;8.716;2022-12-11T00:06:41;5.10;95.70
22544;DHT22;11438;52.044;8.716;2022-12-11T00:09:08;5.00;95.70
22544;DHT22;11438;52.044;8.716;2022-12-11T00:11:33;5.00;95.70
22544;DHT22;11438;52.044;8.716;2022-12-11T00:13:59;5.00;95.70
22544;DHT22;11438;52.044;8.716;2022-12-11T00:16:24;5.00;95.70
22544;DHT22;11438;52.044;8.716;2022-12-11T00:18:50;5.00;95.50
22544;DHT22;11438;52.044;8.716;2022-12-11T00:21:15;5.00;95.50
22544;DHT22;11438;52.044;8.716;2022-12-11T00:23:41;5.00;95.50
22544;DHT22;11438;52.044;8.716;2022-12-11T00:26:10;5.00;95.50
22544;DHT22;11438;52.044;8.716;2022-12-11T00:28:36;5.00;95.60
22544;DHT22;11438;52.044;8.716;2022-12-11T00:31:07;5.00;95.60
22544;DHT22;11438;52.044;8.716;2022-12-11T00:33:33;5.00;95.60
22544;DHT22;11438;52.044;8.716;2022-12-11T00:35:58;5.00;95.70
22544;DHT22;11438;52.044;8.716;2022-12-11T00:38:24;5.00;95.70
22544;DHT22;11438;52.044;8.716;2022-12-11T00:40:50;5.00;95.70
22544;DHT22;11438;52.044;8.716;2022-12-11T00:43:15;5.00;95.60
22544;DHT22;11438;52.044;8.716;2022-12-11T00:45:42;5.00;95.60
22544;DHT22;11438;52.044;8.716;2022-12-11T00:48:09;5.00;95.60
22544;DHT22;11438;52.044;8.716;2022-12-11T00:50:35;5.00;95.60
22544;DHT22;11438;52.044;8.716;2022-12-11T00:53:02;5.00;95.60
22544;DHT22;11438;52.044;8.716;2022-12-11T00:55:29;5.00;95.60
22544;DHT22;11438;52.044;8.716;2022-12-11T00:57:55;5.00;95.60
22544;DHT22;11438;52.044;8.716;2022-12-11T01:00:21;5.00;95.60
22544;DHT22;11438;52.044;8.716;2022-12-11T01:02:48;5.10;95.60
22544;DHT22;11438;52.044;8.716;2022-12-11T01:05:14;5.00;95.60
22544;DHT22;11438;52.044;8.716;2022-12-11T01:07:40;5.00;95.60
22544;DHT22;11438;52.044;8.716;2022-12-11T01:10:05;5.00;95.60
22544;DHT22;11438;52.044;8.716;2022-12-11T01:12:54;5.10;95.70
22544;DHT22;11438;52.044;8.716;2022-12-11T01:15:22;5.10;95.70
22544;DHT22;11438;52.044;8.716;2022-12-11T01:17:48;5.10;95.70
22544;DHT22;11438;52.044;8.716;2022-12-11T01:20:14;5.10;95.60
22544;DHT22;11438;52.044;8.716;2022-12-11T01:22:40;5.00;95.60
22544;DHT22;11438;52.044;8.716;2022-12-11T01:25:06;5.10;95.70
22544;DHT22;11438;52.044;8.716;2022-12-11T01:27:31;5.10;95.70
22544;DHT22;11438;52.044;8.716;2022-12-11T01:29:57;5.10;95.70
22544;DHT22;11438;52.044;8.716;2022-12-11T01:32:22;5.10;95.70
22544;DHT22;11438;52.044;8.716;2022-12-11T01:34:48;5.10;95.70
22544;DHT22;11438;52.044;8.716;2022-12-11T01:37:14;5.10;95.70
22544;DHT22;11438;52.044;8.716;2022-12-11T01:39:39;5.10;95.60
22544;DHT22;11438;52.044;8.716;2022-12-11T01:42:05;5.10;95.60
22544;DHT22;11438;52.044;8.716;2022-12-11T01:47:00;5.10;95.60
22544;DHT22;11438;52.044;8.716;2022-12-11T01:49:26;5.10;95.60
22544;DHT22;11438;52.044;8.716;2022-12-11T01:51:59;5.10;95.60
22544;DHT22;11438;52.044;8.716;2022-12-11T01:54:27;5.10;95.60
22544;DHT22;11438;52.044;8.716;2022-12-11T01:56:55;5.10;95.60
22544;DHT22;11438;52.044;8.716;2022-12-11T01:59:24;5.10;95.60
22544;DHT22;11438;52.044;8.716;2022-12-11T02:02:01;5.00;95.50
22544;DHT22;11438;52.044;8.716;2022-12-11T02:04:28;5.10;95.60
22544;DHT22;11438;52.044;8.716;2022-12-11T02:06:53;5.00;95.60
22544;DHT22;11438;52.044;8.716;2022-12-11T02:09:27;5.10;95.70
22544;DHT22;11438;52.044;8.716;2022-12-11T02:18:02;5.00;95.60
22544;DHT22;11438;52.044;8.716;2022-12-11T02:20:43;5.00;95.60
22544;DHT22;11438;52.044;8.716;2022-12-11T02:26:24;5.10;95.70
22544;DHT22;11438;52.044;8.716;2022-12-11T02:28:57;5.00;95.70
22544;DHT22;11438;52.044;8.716;2022-12-11T02:31:38;5.00;95.70
22544;DHT22;11438;52.044;8.716;2022-12-11T02:34:15;5.00;96.10
22544;DHT22;11438;52.044;8.716;2022-12-11T02:36:45;5.00;95.80
22544;DHT22;11438;52.044;8.716;2022-12-11T02:39:14;5.00;95.90
22544;DHT22;11438;52.044;8.716;2022-12-11T02:41:48;5.00;95.90
22544;DHT22;11438;52.044;8.716;2022-12-11T02:44:16;5.00;95.90
22544;DHT22;11438;52.044;8.716;2022-12-11T02:46:43;5.00;95.90
22544;DHT22;11438;52.044;8.716;2022-12-11T02:49:11;5.00;95.90
22544;DHT22;11438;52.044;8.716;2022-12-11T02:51:40;5.00;95.90
22544;DHT22;11438;52.044;8.716;2022-12-11T02:54:10;5.10;96.00
22544;DHT22;11438;52.044;8.716;2022-12-11T02:56:43;5.00;96.00
22544;DHT22;11438;52.044;8.716;2022-12-11T02:59:18;5.00;96.00
22544;DHT22;11438;52.044;8.716;2022-12-11T03:01:45;5.00;96.00
22544;DHT22;11438;52.044;8.716;2022-12-11T03:04:11;5.00;95.90
22544;DHT22;11438;52.044;8.716;2022-12-11T03:06:44;5.00;95.90
22544;DHT22;11438;52.044;8.716;2022-12-11T03:09:11;5.00;96.00
22544;DHT22;11438;52.044;8.716;2022-12-11T03:11:37;5.00;96.00
22544;DHT22;11438;52.044;8.716;2022-12-11T03:14:03;5.00;96.00
22544;DHT22;11438;52.044;8.716;2022-12-11T03:16:41;5.00;96.00
22544;DHT22;11438;52.044;8.716;2022-12-11T03:19:17;5.00;96.10
22544;DHT22;11438;52.044;8.716;2022-12-11T03:21:54;5.10;96.20
22544;DHT22;11438;52.044;8.716;2022-12-11T03:24:33;5.00;96.10
22544;DHT22;11438;52.044;8.716;2022-12-11T03:27:07;5.10;96.20
22544;DHT22;11438;52.044;8.716;2022-12-11T03:29:41;5.10;96.20
22544;DHT22;11438;52.044;8.716;2022-12-11T03:32:12;5.10;96.20
22544;DHT22;11438;52.044;8.716;2022-12-11T03:35:02;5.10;96.20
22544;DHT22;11438;52.044;8.716;2022-12-11T03:37:33;5.10;96.20
22544;DHT22;11438;52.044;8.716;2022-12-11T03:40:04;5.10;96.20
22544;DHT22;11438;52.044;8.716;2022-12-11T03:42:32;5.10;96.20
22544;DHT22;11438;52.044;8.716;2022-12-11T03:44:59;5.10;96.30
22544;DHT22;11438;52.044;8.716;2022-12-11T03:47:26;5.10;96.30
22544;DHT22;11438;52.044;8.716;2022-12-11T03:49:53;5.10;96.30
22544;DHT22;11438;52.044;8.716;2022-12-11T03:52:19;5.10;96.30
22544;DHT22;11438;52.044;8.716;2022-12-11T03:54:46;5.10;96.30
22544;DHT22;11438;52.044;8.716;2022-12-11T03:57:16;5.10;96.30
22544;DHT22;11438;52.044;8.716;2022-12-11T03:59:42;5.10;96.40
22544;DHT22;11438;52.044;8.716;2022-12-11T04:02:08;5.10;96.40
22544;DHT22;11438;52.044;8.716;2022-12-11T04:04:44;5.10;96.40
22544;DHT22;11438;52.044;8.716;2022-12-11T04:07:09;5.10;96.50
22544;DHT22;11438;52.044;8.716;2022-12-11T04:09:35;5.10;96.50
22544;DHT22;11438;52.044;8.716;2022-12-11T04:12:01;5.10;96.60
22544;DHT22;11438;52.044;8.716;2022-12-11T04:14:26;5.10;96.60
22544;DHT22;11438;52.044;8.716;2022-12-11T04:17:11;5.10;96.70
22544;DHT22;11438;52.044;8.716;2022-12-11T04:19:36;5.10;96.70
22544;DHT22;11438;52.044;8.716;2022-12-11T04:22:20;5.00;96.70
22544;DHT22;11438;52.044;8.716;2022-12-11T04:25:05;5.00;96.70
22544;DHT22;11438;52.044;8.716;2022-12-11T04:27:32;5.10;96.80
22544;DHT22;11438;52.044;8.716;2022-12-11T04:30:21;5.10;96.80
22544;DHT22;11438;52.044;8.716;2022-12-11T04:32:47;5.00;96.80
22544;DHT22;11438;52.044;8.716;2022-12-11T04:35:13;5.00;96.80
22544;DHT22;11438;52.044;8.716;2022-12-11T04:37:38;5.00;96.80
22544;DHT22;11438;52.044;8.716;2022-12-11T04:40:06;5.00;96.90
22544;DHT22;11438;52.044;8.716;2022-12-11T04:42:32;5.00;96.90
22544;DHT22;11438;52.044;8.716;2022-12-11T04:44:57;5.00;96.90
22544;DHT22;11438;52.044;8.716;2022-12-11T04:47:23;5.00;96.90
22544;DHT22;11438;52.044;8.716;2022-12-11T04:49:49;5.00;96.90
22544;DHT22;11438;52.044;8.716;2022-12-11T04:52:14;5.10;97.00
22544;DHT22;11438;52.044;8.716;2022-12-11T04:54:41;5.10;97.00
22544;DHT22;11438;52.044;8.716;2022-12-11T04:57:06;5.00;97.00
22544;DHT22;11438;52.044;8.716;2022-12-11T04:59:32;5.00;97.00
22544;DHT22;11438;52.044;8.716;2022-12-11T05:01:58;5.10;97.10
22544;DHT22;11438;52.044;8.716;2022-12-11T05:04:24;5.00;97.10
22544;DHT22;11438;52.044;8.716;2022-12-11T05:06:49;5.10;97.10
22544;DHT22;11438;52.044;8.716;2022-12-11T05:09:15;5.00;97.10
22544;DHT22;11438;52.044;8.716;2022-12-11T05:11:41;5.10;97.10
22544;DHT22;11438;52.044;8.716;2022-12-11T05:14:07;5.00;97.50
22544;DHT22;11438;52.044;8.716;2022-12-11T05:16:32;5.00;97.20
22544;DHT22;11438;52.044;8.716;2022-12-11T05:18:58;5.00;97.20
22544;DHT22;11438;52.044;8.716;2022-12-11T05:21:24;5.10;97.20
22544;DHT22;11438;52.044;8.716;2022-12-11T05:23:49;5.10;97.20
22544;DHT22;11438;52.044;8.716;2022-12-11T05:26:17;5.10;97.20
22544;DHT22;11438;52.044;8.716;2022-12-11T05:28:44;5.10;97.20
22544;DHT22;11438;52.044;8.716;2022-12-11T05:31:16;5.10;97.20
22544;DHT22;11438;52.044;8.716;2022-12-11T05:33:43;5.10;97.20
22544;DHT22;11438;52.044;8.716;2022-12-11T05:36:15;5.10;97.20
22544;DHT22;11438;52.044;8.716;2022-12-11T05:38:41;5.10;97.20
22544;DHT22;11438;52.044;8.716;2022-12-11T05:41:06;5.10;97.20
22544;DHT22;11438;52.044;8.716;2022-12-11T05:43:34;5.10;97.20
22544;DHT22;11438;52.044;8.716;2022-12-11T05:46:10;5.10;97.30
22544;DHT22;11438;52.044;8.716;2022-12-11T05:48:36;5.10;97.30
22544;DHT22;11438;52.044;8.716;2022-12-11T05:51:03;5.10;97.70
22544;DHT22;11438;52.044;8.716;2022-12-11T05:53:29;5.10;97.30
22544;DHT22;11438;52.044;8.716;2022-12-11T05:56:01;5.10;97.30
22544;DHT22;11438;52.044;8.716;2022-12-11T05:58:27;5.10;97.30
22544;DHT22;11438;52.044;8.716;2022-12-11T06:00:53;5.10;97.30
22544;DHT22;11438;52.044;8.716;2022-12-11T06:03:21;5.10;97.30
22544;DHT22;11438;52.044;8.716;2022-12-11T06:05:47;5.10;97.30
22544;DHT22;11438;52.044;8.716;2022-12-11T06:08:13;5.10;97.30
22544;DHT22;11438;52.044;8.716;2022-12-11T06:10:45;5.10;97.30
22544;DHT22;11438;52.044;8.716;2022-12-11T06:13:11;5.10;97.30
22544;DHT22;11438;52.044;8.716;2022-12-11T06:15:36;5.10;97.30
22544;DHT22;11438;52.044;8.716;2022-12-11T06:18:02;5.10;97.40
22544;DHT22;11438;52.044;8.716;2022-12-11T06:20:31;5.10;97.30
22544;DHT22;11438;52.044;8.716;2022-12-11T06:22:57;5.10;97.40
22544;DHT22;11438;52.044;8.716;2022-12-11T06:25:23;5.10;97.70
22544;DHT22;11438;52.044;8.716;2022-12-11T06:27:49;5.10;97.40
22544;DHT22;11438;52.044;8.716;2022-12-11T06:30:14;5.10;97.40
22544;DHT22;11438;52.044;8.716;2022-12-11T06:32:41;5.10;97.30
22544;DHT22;11438;52.044;8.716;2022-12-11T06:35:07;5.10;97.30
22544;DHT22;11438;52.044;8.716;2022-12-11T06:37:34;5.10;97.30
22544;DHT22;11438;52.044;8.716;2022-12-11T06:40:00;5.10;97.30
22544;DHT22;11438;52.044;8.716;2022-12-11T06:42:25;5.10;97.30
22544;DHT22;11438;52.044;8.716;2022-12-11T06:44:51;5.10;97.30
22544;DHT22;11438;52.044;8.716;2022-12-11T06:47:16;5.10;97.20
22544;DHT22;11438;52.044;8.716;2022-12-11T06:49:42;5.10;97.20
22544;DHT22;11438;52.044;8.716;2022-12-11T06:52:07;5.10;97.20
22544;DHT22;11438;52.044;8.716;2022-12-11T06:54:33;5.10;97.20
22544;DHT22;11438;52.044;8.716;2022-12-11T06:56:58;5.10;97.20
22544;DHT22;11438;52.044;8.716;2022-12-11T06:59:24;5.10;97.20
22544;DHT22;11438;52.044;8.716;2022-12-11T07:01:49;5.10;97.20
22544;DHT22;11438;52.044;8.716;2022-12-11T07:04:15;5.10;97.20
22544;DHT22;11438;52.044;8.716;2022-12-11T07:06:40;5.10;97.20
22544;DHT22;11438;52.044;8.716;2022-12-11T07:09:06;5.00;97.20
22544;DHT22;11438;52.044;8.716;2022-12-11T07:11:32;5.10;97.20
22544;DHT22;11438;52.044;8.716;2022-12-11T07:13:58;5.00;97.20
22544;DHT22;11438;52.044;8.716;2022-12-11T07:16:25;5.00;97.30
22544;DHT22;11438;52.044;8.716;2022-12-11T07:18:50;5.00;97.30
22544;DHT22;11438;52.044;8.716;2022-12-11T07:21:17;5.00;97.30
22544;DHT22;11438;52.044;8.716;2022-12-11T07:23:43;5.00;97.30
22544;DHT22;11438;52.044;8.716;2022-12-11T07:26:11;5.00;97.30
22544;DHT22;11438;52.044;8.716;2022-12-11T07:28:37;5.00;97.30
22544;DHT22;11438;52.044;8.716;2022-12-11T07:31:05;5.00;97.30
22544;DHT22;11438;52.044;8.716;2022-12-11T07:33:30;5.00;97.30
22544;DHT22;11438;52.044;8.716;2022-12-11T07:36:03;5.00;97.20
22544;DHT22;11438;52.044;8.716;2022-12-11T07:38:29;5.00;97.20
22544;DHT22;11438;52.044;8.716;2022-12-11T07:40:54;5.00;97.10
22544;DHT22;11438;52.044;8.716;2022-12-11T07:43:20;5.00;97.10
22544;DHT22;11438;52.044;8.716;2022-12-11T07:45:45;5.00;97.00
22544;DHT22;11438;52.044;8.716;2022-12-11T07:48:11;5.00;96.90
22544;DHT22;11438;52.044;8.716;2022-12-11T07:50:37;4.90;96.80
22544;DHT22;11438;52.044;8.716;2022-12-11T07:53:02;4.90;96.80
22544;DHT22;11438;52.044;8.716;2022-12-11T07:55:28;4.90;96.70
22544;DHT22;11438;52.044;8.716;2022-12-11T07:57:54;4.90;96.70
22544;DHT22;11438;52.044;8.716;2022-12-11T08:00:19;4.90;96.70
22544;DHT22;11438;52.044;8.716;2022-12-11T08:02:45;4.90;96.70
22544;DHT22;11438;52.044;8.716;2022-12-11T08:05:10;4.90;96.60
22544;DHT22;11438;52.044;8.716;2022-12-11T08:07:37;4.80;96.50
22544;DHT22;11438;52.044;8.716;2022-12-11T08:10:03;4.80;96.50
22544;DHT22;11438;52.044;8.716;2022-12-11T08:12:29;4.80;96.50
22544;DHT22;11438;52.044;8.716;2022-12-11T08:14:54;4.80;96.40
22544;DHT22;11438;52.044;8.716;2022-12-11T08:17:20;4.80;96.40
22544;DHT22;11438;52.044;8.716;2022-12-11T08:19:45;4.80;96.40
22544;DHT22;11438;52.044;8.716;2022-12-11T08:22:11;4.80;96.40
22544;DHT22;11438;52.044;8.716;2022-12-11T08:24:38;4.80;96.40
22544;DHT22;11438;52.044;8.716;2022-12-11T08:27:05;4.80;96.30
22544;DHT22;11438;52.044;8.716;2022-12-11T08:29:31;4.80;96.20
22544;DHT22;11438;52.044;8.716;2022-12-11T08:31:56;4.80;96.30
22544;DHT22;11438;52.044;8.716;2022-12-11T08:34:22;4.80;96.10
22544;DHT22;11438;52.044;8.716;2022-12-11T08:36:47;4.70;96.20
22544;DHT22;11438;52.044;8.716;2022-12-11T08:39:13;4.70;96.20
22544;DHT22;11438;52.044;8.716;2022-12-11T08:41:39;4.70;96.30
22544;DHT22;11438;52.044;8.716;2022-12-11T08:44:11;4.70;96.30
22544;DHT22;11438;52.044;8.716;2022-12-11T08:46:37;4.70;96.70
22544;DHT22;11438;52.044;8.716;2022-12-11T08:49:03;4.70;96.30
22544;DHT22;11438;52.044;8.716;2022-12-11T08:51:29;4.70;96.20
22544;DHT22;11438;52.044;8.716;2022-12-11T08:53:59;4.70;96.20
22544;DHT22;11438;52.044;8.716;2022-12-11T08:56:25;4.70;96.10
22544;DHT22;11438;52.044;8.716;2022-12-11T08:58:51;4.70;96.10
22544;DHT22;11438;52.044;8.716;2022-12-11T09:01:25;4.70;96.10
22544;DHT22;11438;52.044;8.716;2022-12-11T09:03:53;4.70;96.00
22544;DHT22;11438;52.044;8.716;2022-12-11T09:06:21;4.80;96.00
22544;DHT22;11438;52.044;8.716;2022-12-11T09:08:48;4.70;96.00
22544;DHT22;11438;52.044;8.716;2022-12-11T09:11:20;4.70;96.10
22544;DHT22;11438;52.044;8.716;2022-12-11T09:13:47;4.80;96.20
22544;DHT22;11438;52.044;8.716;2022-12-11T09:16:15;4.80;96.20
22544;DHT22;11438;52.044;8.716;2022-12-11T09:18:43;4.80;96.20
22544;DHT22;11438;52.044;8.716;2022-12-11T09:21:11;4.80;96.20
22544;DHT22;11438;52.044;8.716;2022-12-11T09:23:38;4.80;96.20
22544;DHT22;11438;52.044;8.716;2022-12-11T09:26:05;4.90;96.20
22544;DHT22;11438;52.044;8.716;2022-12-11T09:28:31;4.90;96.10
22544;DHT22;11438;52.044;8.716;2022-12-11T09:30:57;5.00;96.10
22544;DHT22;11438;52.044;8.716;2022-12-11T09:33:22;5.00;96.10
22544;DHT22;11438;52.044;8.716;2022-12-11T09:35:58;5.00;96.10
22544;DHT22;11438;52.044;8.716;2022-12-11T09:38:24;5.00;96.00
22544;DHT22;11438;52.044;8.716;2022-12-11T09:40:49;5.00;95.90
22544;DHT22;11438;52.044;8.716;2022-12-11T09:45:47;5.00;95.70
22544;DHT22;11438;52.044;8.716;2022-12-11T09:48:16;5.10;95.70
22544;DHT22;11438;52.044;8.716;2022-12-11T09:50:42;5.10;95.80
22544;DHT22;11438;52.044;8.716;2022-12-11T09:53:24;5.10;95.80
22544;DHT22;11438;52.044;8.716;2022-12-11T09:56:09;5.10;95.70
22544;DHT22;11438;52.044;8.716;2022-12-11T09:59:02;5.10;95.70
22544;DHT22;11438;52.044;8.716;2022-12-11T10:01:48;5.10;95.80
22544;DHT22;11438;52.044;8.716;2022-12-11T10:07:17;5.20;95.70
22544;DHT22;11438;52.044;8.716;2022-12-11T10:15:53;5.20;95.40
22544;DHT22;11438;52.044;8.716;2022-12-11T10:18:24;5.20;95.50
22544;DHT22;11438;52.044;8.716;2022-12-11T10:20:52;5.20;95.50
22544;DHT22;11438;52.044;8.716;2022-12-11T10:23:21;5.20;95.60
22544;DHT22;11438;52.044;8.716;2022-12-11T10:26:06;5.10;95.90
22544;DHT22;11438;52.044;8.716;2022-12-11T10:28:32;5.20;95.50
22544;DHT22;11438;52.044;8.716;2022-12-11T10:31:17;5.20;95.50
22544;DHT22;11438;52.044;8.716;2022-12-11T10:34:04;5.20;95.30
22544;DHT22;11438;52.044;8.716;2022-12-11T10:36:37;5.20;95.30
22544;DHT22;11438;52.044;8.716;2022-12-11T10:39:15;5.20;95.40
22544;DHT22;11438;52.044;8.716;2022-12-11T10:41:46;5.10;95.40
22544;DHT22;11438;52.044;8.716;2022-12-11T10:44:24;5.20;95.40
22544;DHT22;11438;52.044;8.716;2022-12-11T10:49:37;5.20;95.60
22544;DHT22;11438;52.044;8.716;2022-12-11T10:52:34;5.20;95.70
22544;DHT22;11438;52.044;8.716;2022-12-11T10:57:35;5.20;95.80
22544;DHT22;11438;52.044;8.716;2022-12-11T11:00:05;5.20;95.80
22544;DHT22;11438;52.044;8.716;2022-12-11T11:02:36;5.20;95.80
22544;DHT22;11438;52.044;8.716;2022-12-11T11:05:15;5.30;95.90
22544;DHT22;11438;52.044;8.716;2022-12-11T11:07:41;5.30;95.90
22544;DHT22;11438;52.044;8.716;2022-12-11T11:12:47;5.30;95.80
22544;DHT22;11438;52.044;8.716;2022-12-11T11:15:19;5.30;95.70
22544;DHT22;11438;52.044;8.716;2022-12-11T11:17:50;5.30;95.60
22544;DHT22;11438;52.044;8.716;2022-12-11T11:20:18;5.30;95.60
22544;DHT22;11438;52.044;8.716;2022-12-11T11:22:56;5.40;95.70
22544;DHT22;11438;52.044;8.716;2022-12-11T11:25:24;5.30;95.60
22544;DHT22;11438;52.044;8.716;2022-12-11T11:27:59;5.40;95.60
22544;DHT22;11438;52.044;8.716;2022-12-11T11:30:27;5.40;95.50
22544;DHT22;11438;52.044;8.716;2022-12-11T11:32:56;5.40;95.40
22544;DHT22;11438;52.044;8.716;2022-12-11T11:35:25;5.40;95.30
22544;DHT22;11438;52.044;8.716;2022-12-11T11:38:08;5.40;95.10
22544;DHT22;11438;52.044;8.716;2022-12-11T11:41:01;5.30;95.00
22544;DHT22;11438;52.044;8.716;2022-12-11T11:43:35;5.30;95.00
22544;DHT22;11438;52.044;8.716;2022-12-11T11:48:43;5.30;95.10
22544;DHT22;11438;52.044;8.716;2022-12-11T11:51:20;5.30;95.20
22544;DHT22;11438;52.044;8.716;2022-12-11T11:53:50;5.30;95.30
22544;DHT22;11438;52.044;8.716;2022-12-11T11:56:21;5.30;95.30
22544;DHT22;11438;52.044;8.716;2022-12-11T11:58:56;5.30;95.60
22544;DHT22;11438;52.044;8.716;2022-12-11T12:01:24;5.30;95.20
22544;DHT22;11438;52.044;8.716;2022-12-11T12:03:50;5.30;95.30
22544;DHT22;11438;52.044;8.716;2022-12-11T12:12:11;5.30;95.30
22544;DHT22;11438;52.044;8.716;2022-12-11T12:14:58;5.30;95.30
22544;DHT22;11438;52.044;8.716;2022-12-11T12:17:45;5.30;95.20
22544;DHT22;11438;52.044;8.716;2022-12-11T12:20:24;5.30;95.20
22544;DHT22;11438;52.044;8.716;2022-12-11T12:23:24;5.30;95.20
22544;DHT22;11438;52.044;8.716;2022-12-11T12:26:27;5.30;95.00
22544;DHT22;11438;52.044;8.716;2022-12-11T12:48:27;5.20;95.40
22544;DHT22;11438;52.044;8.716;2022-12-11T12:50:54;5.20;95.50
22544;DHT22;11438;52.044;8.716;2022-12-11T12:53:26;5.20;95.50
22544;DHT22;11438;52.044;8.716;2022-12-11T12:55:53;5.20;95.40
22544;DHT22;11438;52.044;8.716;2022-12-11T12:58:42;5.20;95.40
22544;DHT22;11438;52.044;8.716;2022-12-11T13:01:16;5.20;95.30
22544;DHT22;11438;52.044;8.716;2022-12-11T13:04:25;5.20;95.30
22544;DHT22;11438;52.044;8.716;2022-12-11T13:06:52;5.20;95.30
22544;DHT22;11438;52.044;8.716;2022-12-11T13:09:23;5.20;95.40
22544;DHT22;11438;52.044;8.716;2022-12-11T13:11:51;5.10;95.40
22544;DHT22;11438;52.044;8.716;2022-12-11T13:14:31;5.10;95.40
22544;DHT22;11438;52.044;8.716;2022-12-11T13:17:35;5.10;95.50
22544;DHT22;11438;52.044;8.716;2022-12-11T13:20:18;5.10;95.50
22544;DHT22;11438;52.044;8.716;2022-12-11T13:25:29;5.10;95.50
22544;DHT22;11438;52.044;8.716;2022-12-11T13:28:21;5.10;95.50
22544;DHT22;11438;52.044;8.716;2022-12-11T13:31:05;5.00;95.40
22544;DHT22;11438;52.044;8.716;2022-12-11T13:33:36;5.00;95.50
22544;DHT22;11438;52.044;8.716;2022-12-11T13:39:00;5.00;95.50
22544;DHT22;11438;52.044;8.716;2022-12-11T13:41:27;5.00;95.60
22544;DHT22;11438;52.044;8.716;2022-12-11T13:43:53;5.00;95.60
22544;DHT22;11438;52.044;8.716;2022-12-11T13:46:23;5.00;95.60
22544;DHT22;11438;52.044;8.716;2022-12-11T13:48:53;5.00;95.60
22544;DHT22;11438;52.044;8.716;2022-12-11T13:51:24;5.00;95.60
22544;DHT22;11438;52.044;8.716;2022-12-11T13:54:22;5.00;95.50
22544;DHT22;11438;52.044;8.716;2022-12-11T13:57:17;5.00;95.40
22544;DHT22;11438;52.044;8.716;2022-12-11T13:59:48;5.00;95.40
22544;DHT22;11438;52.044;8.716;2022-12-11T14:02:21;5.00;95.50
22544;DHT22;11438;52.044;8.716;2022-12-11T14:04:50;5.00;95.50
22544;DHT22;11438;52.044;8.716;2022-12-11T14:07:40;5.00;95.50
22544;DHT22;11438;52.044;8.716;2022-12-11T14:10:15;5.00;95.50
22544;DHT22;11438;52.044;8.716;2022-12-11T14:13:05;5.00;95.60
22544;DHT22;11438;52.044;8.716;2022-12-11T14:15:35;5.00;95.60
22544;DHT22;11438;52.044;8.716;2022-12-11T14:18:01;5.00;95.60
22544;DHT22;11438;52.044;8.716;2022-12-11T14:20:30;5.00;95.60
22544;DHT22;11438;52.044;8.716;2022-12-11T14:23:17;5.00;95.50
22544;DHT22;11438;52.044;8.716;2022-12-11T14:25:54;5.00;95.60
22544;DHT22;11438;52.044;8.716;2022-12-11T14:28:21;5.00;95.50
22544;DHT22;11438;52.044;8.716;2022-12-11T14:30:49;5.00;95.60
22544;DHT22;11438;52.044;8.716;2022-12-11T14:33:16;5.00;95.50
22544;DHT22;11438;52.044;8.716;2022-12-11T14:35:43;5.00;95.50
22544;DHT22;11438;52.044;8.716;2022-12-11T14:38:17;5.00;95.50
22544;DHT22;11438;52.044;8.716;2022-12-11T14:40:48;5.00;95.50
22544;DHT22;11438;52.044;8.716;2022-12-11T14:43:25;5.00;95.50
22544;DHT22;11438;52.044;8.716;2022-12-11T14:45:59;5.00;95.50
22544;DHT22;11438;52.044;8.716;2022-12-11T14:48:33;5.00;95.60
22544;DHT22;11438;52.044;8.716;2022-12-11T14:51:02;5.00;95.60
22544;DHT22;11438;52.044;8.716;2022-12-11T14:53:36;5.00;95.70
22544;DHT22;11438;52.044;8.716;2022-12-11T14:56:05;5.00;95.70
22544;DHT22;11438;52.044;8.716;2022-12-11T14:58:32;5.00;95.70
22544;DHT22;11438;52.044;8.716;2022-12-11T15:01:18;5.00;95.80
22544;DHT22;11438;52.044;8.716;2022-12-11T15:03:44;5.00;95.80
22544;DHT22;11438;52.044;8.716;2022-12-11T15:06:46;5.00;95.90
22544;DHT22;11438;52.044;8.716;2022-12-11T15:12:10;5.00;95.90
22544;DHT22;11438;52.044;8.716;2022-12-11T15:14:47;5.00;95.90
22544;DHT22;11438;52.044;8.716;2022-12-11T15:17:13;5.00;96.00
22544;DHT22;11438;52.044;8.716;2022-12-11T15:19:39;5.00;96.00
22544;DHT22;11438;52.044;8.716;2022-12-11T15:22:07;5.10;96.00
22544;DHT22;11438;52.044;8.716;2022-12-11T15:26:59;5.10;96.00
22544;DHT22;11438;52.044;8.716;2022-12-11T15:29:37;5.10;95.90
22544;DHT22;11438;52.044;8.716;2022-12-11T15:34:43;5.10;95.90
22544;DHT22;11438;52.044;8.716;2022-12-11T15:37:21;5.10;95.90
22544;DHT22;11438;52.044;8.716;2022-12-11T15:39:47;5.10;95.90
22544;DHT22;11438;52.044;8.716;2022-12-11T15:42:15;5.10;95.90
22544;DHT22;11438;52.044;8.716;2022-12-11T15:44:41;5.10;95.80
22544;DHT22;11438;52.044;8.716;2022-12-11T15:47:14;5.10;95.90
22544;DHT22;11438;52.044;8.716;2022-12-11T15:49:41;5.10;95.90
22544;DHT22;11438;52.044;8.716;2022-12-11T15:52:07;5.10;95.90
22544;DHT22;11438;52.044;8.716;2022-12-11T15:54:33;5.10;95.90
22544;DHT22;11438;52.044;8.716;2022-12-11T15:57:00;5.10;95.90
22544;DHT22;11438;52.044;8.716;2022-12-11T15:59:27;5.00;95.90
22544;DHT22;11438;52.044;8.716;2022-12-11T16:01:53;5.10;95.90
22544;DHT22;11438;52.044;8.716;2022-12-11T16:04:18;5.10;95.90
22544;DHT22;11438;52.044;8.716;2022-12-11T16:06:44;5.10;96.00
22544;DHT22;11438;52.044;8.716;2022-12-11T16:09:11;5.10;96.00
22544;DHT22;11438;52.044;8.716;2022-12-11T16:11:36;5.10;96.00
22544;DHT22;11438;52.044;8.716;2022-12-11T16:14:02;5.00;96.00
22544;DHT22;11438;52.044;8.716;2022-12-11T16:16:29;5.10;96.00
22544;DHT22;11438;52.044;8.716;2022-12-11T16:18:55;5.00;96.00
22544;DHT22;11438;52.044;8.716;2022-12-11T16:21:20;5.00;96.10
22544;DHT22;11438;52.044;8.716;2022-12-11T16:23:46;5.00;96.10
22544;DHT22;11438;52.044;8.716;2022-12-11T16:26:11;5.10;96.20
22544;DHT22;11438;52.044;8.716;2022-12-11T16:28:38;5.00;96.10
22544;DHT22;11438;52.044;8.716;2022-12-11T16:31:12;5.00;96.10
22544;DHT22;11438;52.044;8.716;2022-12-11T16:33:38;5.00;96.10
22544;DHT22;11438;52.044;8.716;2022-12-11T16:36:14;5.10;96.20
22544;DHT22;11438;52.044;8.716;2022-12-11T16:38:40;5.00;96.20
22544;DHT22;11438;52.044;8.716;2022-12-11T16:41:08;5.00;96.20
22544;DHT22;11438;52.044;8.716;2022-12-11T16:43:33;5.00;96.20
22544;DHT22;11438;52.044;8.716;2022-12-11T16:45:59;5.00;96.20
22544;DHT22;11438;52.044;8.716;2022-12-11T16:48:24;5.00;96.20
22544;DHT22;11438;52.044;8.716;2022-12-11T16:50:53;5.00;96.20
22544;DHT22;11438;52.044;8.716;2022-12-11T16:53:19;5.00;96.10
22544;DHT22;11438;52.044;8.716;2022-12-11T16:55:45;5.00;96.00
22544;DHT22;11438;52.044;8.716;2022-12-11T16:58:10;5.00;96.00
22544;DHT22;11438;52.044;8.716;2022-12-11T17:00:41;5.00;96.00
22544;DHT22;11438;52.044;8.716;2022-12-11T17:03:06;5.00;96.00
22544;DHT22;11438;52.044;8.716;2022-12-11T17:05:32;5.00;96.00
22544;DHT22;11438;52.044;8.716;2022-12-11T17:07:57;5.00;95.90
22544;DHT22;11438;52.044;8.716;2022-12-11T17:10:23;5.00;95.90
22544;DHT22;11438;52.044;8.716;2022-12-11T17:12:48;5.00;95.90
22544;DHT22;11438;52.044;8.716;2022-12-11T17:15:14;5.00;95.90